sensor_id;sensor_type;location;lat;lon;timestamp;P1;durP1;ratioP1;P2;durP2;ratioP2
57249;SDS011;43102;52.014;-0.680;2023-06-04T00:00:01;12.60;;;4.50;;
57249;SDS011;43102;52.014;-0.680;2023-06-04T00:01:00;12.60;;;4.50;;
57249;SDS011;43102;52.014;-0.680;2023-06-04T00:02:00;12.60;;;4.50;;
57249;SDS011;43102;52.014;-0.680;2023-06-04T00:03:00;12.60;;;4.50;;
57249;SDS011;43102;52.014;-0.680;2023-06-04T00:04:00;12.60;;;4.50;;
57249;SDS011;43102;52.014;-0.680;2023-06-04T00:05:00;12.60;;;4.50;;
57249;SDS011;43102;52.014;-0.680;2023-06-04T00:06:00;12.60;;;4.50;;
57249;SDS011;43102;52.014;-0.680;2023-06-04T00:07:00;12.60;;;4.50;;
57249;SDS011;43102;52.014;-0.680;2023-06-04T00:08:00;12.60;;;4.50;;
57249;SDS011;43102;52.014;-0.680;2023-06-04T00:09:00;12.60;;;4.50;;
57249;SDS011;43102;52.014;-0.680;2023-06-04T00:10:00;12.60;;;4.50;;
57249;SDS011;43102;52.014;-0.680;2023-06-04T00:11:00;12.60;;;4.50;;
57249;SDS011;43102;52.014;-0.680;2023-06-04T00:12:01;12.60;;;4.50;;
57249;SDS011;43102;52.014;-0.680;2023-06-04T00:13:01;12.60;;;4.50;;
57249;SDS011;43102;52.014;-0.680;2023-06-04T00:14:00;8.80;;;3.90;;
57249;SDS011;43102;52.014;-0.680;2023-06-04T00:15:01;8.80;;;3.90;;
57249;SDS011;43102;52.014;-0.680;2023-06-04T00:16:00;8.80;;;3.90;;
57249;SDS011;43102;52.014;-0.680;2023-06-04T00:17:00;8.80;;;3.90;;
57249;SDS011;43102;52.014;-0.680;2023-06-04T00:18:00;8.80;;;3.90;;
57249;SDS011;43102;52.014;-0.680;2023-06-04T00:19:00;8.80;;;3.90;;
57249;SDS011;43102;52.014;-0.680;2023-06-04T00:20:00;8.80;;;3.90;;
57249;SDS011;43102;52.014;-0.680;2023-06-04T00:21:00;8.80;;;3.90;;
57249;SDS011;43102;52.014;-0.680;2023-06-04T00:22:00;8.80;;;3.90;;
57249;SDS011;43102;52.014;-0.680;2023-06-04T00:23:00;8.80;;;3.90;;
57249;SDS011;43102;52.014;-0.680;2023-06-04T00:24:01;8.80;;;3.90;;
57249;SDS011;43102;52.014;-0.680;2023-06-04T00:25:00;8.80;;;3.90;;
57249;SDS011;43102;52.014;-0.680;2023-06-04T00:26:00;8.80;;;3.90;;
57249;SDS011;43102;52.014;-0.680;2023-06-04T00:27:00;8.80;;;3.90;;
57249;SDS011;43102;52.014;-0.680;2023-06-04T00:28:00;8.80;;;3.90;;
57249;SDS011;43102;52.014;-0.680;2023-06-04T00:29:01;8.80;;;3.90;;
57249;SDS011;43102;52.014;-0.680;2023-06-04T00:30:00;8.80;;;3.90;;
57249;SDS011;43102;52.014;-0.680;2023-06-04T00:31:02;8.80;;;3.90;;
57249;SDS011;43102;52.014;-0.680;2023-06-04T00:32:00;8.80;;;3.90;;
57249;SDS011;43102;52.014;-0.680;2023-06-04T00:33:01;8.80;;;3.90;;
57249;SDS011;43102;52.014;-0.680;2023-06-04T00:34:00;8.80;;;3.90;;
57249;SDS011;43102;52.014;-0.680;2023-06-04T00:35:01;8.80;;;3.90;;
57249;SDS011;43102;52.014;-0.680;2023-06-04T00:36:00;8.80;;;3.90;;
57249;SDS011;43102;52.014;-0.680;2023-06-04T00:37:02;8.80;;;3.90;;
57249;SDS011;43102;52.014;-0.680;2023-06-04T00:38:00;8.80;;;3.90;;
57249;SDS011;43102;52.014;-0.680;2023-06-04T00:39:00;8.80;;;3.90;;
57249;SDS011;43102;52.014;-0.680;2023-06-04T00:40:00;8.80;;;3.90;;
57249;SDS011;43102;52.014;-0.680;2023-06-04T00:41:00;8.80;;;3.90;;
57249;SDS011;43102;52.014;-0.680;2023-06-04T00:42:00;8.80;;;3.90;;
57249;SDS011;43102;52.014;-0.680;2023-06-04T00:43:00;8.80;;;3.90;;
57249;SDS011;43102;52.014;-0.680;2023-06-04T00:44:01;8.90;;;4.40;;
57249;SDS011;43102;52.014;-0.680;2023-06-04T00:45:00;8.90;;;4.40;;
57249;SDS011;43102;52.014;-0.680;2023-06-04T00:46:02;8.90;;;4.40;;
57249;SDS011;43102;52.014;-0.680;2023-06-04T00:47:00;8.90;;;4.40;;
57249;SDS011;43102;52.014;-0.680;2023-06-04T00:48:00;8.90;;;4.40;;
57249;SDS011;43102;52.014;-0.680;2023-06-04T00:49:00;8.90;;;4.40;;
57249;SDS011;43102;52.014;-0.680;2023-06-04T00:50:00;8.90;;;4.40;;
57249;SDS011;43102;52.014;-0.680;2023-06-04T00:51:00;8.90;;;4.40;;
57249;SDS011;43102;52.014;-0.680;2023-06-04T00:52:00;8.90;;;4.40;;
57249;SDS011;43102;52.014;-0.680;2023-06-04T00:53:00;8.90;;;4.40;;
57249;SDS011;43102;52.014;-0.680;2023-06-04T00:54:08;8.90;;;4.40;;
57249;SDS011;43102;52.014;-0.680;2023-06-04T00:55:00;8.90;;;4.40;;
57249;SDS011;43102;52.014;-0.680;2023-06-04T00:56:00;8.90;;;4.40;;
57249;SDS011;43102;52.014;-0.680;2023-06-04T00:57:00;8.90;;;4.40;;
57249;SDS011;43102;52.014;-0.680;2023-06-04T00:58:01;8.90;;;4.40;;
57249;SDS011;43102;52.014;-0.680;2023-06-04T00:59:01;8.90;;;4.40;;
57249;SDS011;43102;52.014;-0.680;2023-06-04T01:00:00;8.90;;;4.40;;
57249;SDS011;43102;52.014;-0.680;2023-06-04T01:01:05;8.90;;;4.40;;
57249;SDS011;43102;52.014;-0.680;2023-06-04T01:02:03;8.90;;;4.40;;
57249;SDS011;43102;52.014;-0.680;2023-06-04T01:03:07;8.90;;;4.40;;
57249;SDS011;43102;52.014;-0.680;2023-06-04T01:04:01;8.90;;;4.40;;
57249;SDS011;43102;52.014;-0.680;2023-06-04T01:05:07;8.90;;;4.40;;
57249;SDS011;43102;52.014;-0.680;2023-06-04T01:06:10;8.90;;;4.40;;
57249;SDS011;43102;52.014;-0.680;2023-06-04T01:07:03;8.90;;;4.40;;
57249;SDS011;43102;52.014;-0.680;2023-06-04T01:08:01;8.90;;;4.40;;
57249;SDS011;43102;52.014;-0.680;2023-06-04T01:09:01;8.90;;;4.40;;
57249;SDS011;43102;52.014;-0.680;2023-06-04T01:10:00;8.90;;;4.40;;
57249;SDS011;43102;52.014;-0.680;2023-06-04T01:11:00;8.90;;;4.40;;
57249;SDS011;43102;52.014;-0.680;2023-06-04T01:12:04;8.90;;;4.40;;
57249;SDS011;43102;52.014;-0.680;2023-06-04T01:13:00;8.90;;;4.40;;
57249;SDS011;43102;52.014;-0.680;2023-06-04T01:14:01;9.10;;;4.30;;
57249;SDS011;43102;52.014;-0.680;2023-06-04T01:15:00;9.10;;;4.30;;
57249;SDS011;43102;52.014;-0.680;2023-06-04T01:16:01;9.10;;;4.30;;
57249;SDS011;43102;52.014;-0.680;2023-06-04T01:18:03;9.10;;;4.30;;
57249;SDS011;43102;52.014;-0.680;2023-06-04T01:19:02;9.10;;;4.30;;
57249;SDS011;43102;52.014;-0.680;2023-06-04T01:20:06;9.10;;;4.30;;
57249;SDS011;43102;52.014;-0.680;2023-06-04T01:21:08;9.10;;;4.30;;
57249;SDS011;43102;52.014;-0.680;2023-06-04T01:22:04;9.10;;;4.30;;
57249;SDS011;43102;52.014;-0.680;2023-06-04T01:24:01;9.10;;;4.30;;
57249;SDS011;43102;52.014;-0.680;2023-06-04T01:25:04;9.10;;;4.30;;
57249;SDS011;43102;52.014;-0.680;2023-06-04T01:26:03;9.10;;;4.30;;
57249;SDS011;43102;52.014;-0.680;2023-06-04T01:27:01;9.10;;;4.30;;
57249;SDS011;43102;52.014;-0.680;2023-06-04T01:28:03;9.10;;;4.30;;
57249;SDS011;43102;52.014;-0.680;2023-06-04T01:29:01;9.10;;;4.30;;
57249;SDS011;43102;52.014;-0.680;2023-06-04T01:30:00;9.10;;;4.30;;
57249;SDS011;43102;52.014;-0.680;2023-06-04T01:31:01;9.10;;;4.30;;
57249;SDS011;43102;52.014;-0.680;2023-06-04T01:32:01;9.10;;;4.30;;
57249;SDS011;43102;52.014;-0.680;2023-06-04T01:33:02;9.10;;;4.30;;
57249;SDS011;43102;52.014;-0.680;2023-06-04T01:34:01;9.10;;;4.30;;
57249;SDS011;43102;52.014;-0.680;2023-06-04T01:35:00;9.10;;;4.30;;
57249;SDS011;43102;52.014;-0.680;2023-06-04T01:36:01;9.10;;;4.30;;
57249;SDS011;43102;52.014;-0.680;2023-06-04T01:37:00;9.10;;;4.30;;
57249;SDS011;43102;52.014;-0.680;2023-06-04T01:38:00;9.10;;;4.30;;
57249;SDS011;43102;52.014;-0.680;2023-06-04T01:39:01;9.10;;;4.30;;
57249;SDS011;43102;52.014;-0.680;2023-06-04T01:40:00;9.10;;;4.30;;
57249;SDS011;43102;52.014;-0.680;2023-06-04T01:41:01;9.10;;;4.30;;
57249;SDS011;43102;52.014;-0.680;2023-06-04T01:42:00;9.10;;;4.30;;
57249;SDS011;43102;52.014;-0.680;2023-06-04T01:43:00;9.10;;;4.30;;
57249;SDS011;43102;52.014;-0.680;2023-06-04T01:44:00;13.50;;;4.70;;
57249;SDS011;43102;52.014;-0.680;2023-06-04T01:45:00;13.50;;;4.70;;
57249;SDS011;43102;52.014;-0.680;2023-06-04T01:46:00;13.50;;;4.70;;
57249;SDS011;43102;52.014;-0.680;2023-06-04T01:47:00;13.50;;;4.70;;
57249;SDS011;43102;52.014;-0.680;2023-06-04T01:48:02;13.50;;;4.70;;
57249;SDS011;43102;52.014;-0.680;2023-06-04T01:49:00;13.50;;;4.70;;
57249;SDS011;43102;52.014;-0.680;2023-06-04T01:50:01;13.50;;;4.70;;
57249;SDS011;43102;52.014;-0.680;2023-06-04T01:51:00;13.50;;;4.70;;
57249;SDS011;43102;52.014;-0.680;2023-06-04T01:52:00;13.50;;;4.70;;
57249;SDS011;43102;52.014;-0.680;2023-06-04T01:53:00;13.50;;;4.70;;
57249;SDS011;43102;52.014;-0.680;2023-06-04T01:54:00;13.50;;;4.70;;
57249;SDS011;43102;52.014;-0.680;2023-06-04T01:55:01;13.50;;;4.70;;
57249;SDS011;43102;52.014;-0.680;2023-06-04T01:56:01;13.50;;;4.70;;
57249;SDS011;43102;52.014;-0.680;2023-06-04T01:57:00;13.50;;;4.70;;
57249;SDS011;43102;52.014;-0.680;2023-06-04T01:58:00;13.50;;;4.70;;
57249;SDS011;43102;52.014;-0.680;2023-06-04T01:59:01;13.50;;;4.70;;
57249;SDS011;43102;52.014;-0.680;2023-06-04T02:00:00;13.50;;;4.70;;
57249;SDS011;43102;52.014;-0.680;2023-06-04T02:01:03;13.50;;;4.70;;
57249;SDS011;43102;52.014;-0.680;2023-06-04T02:02:02;13.50;;;4.70;;
57249;SDS011;43102;52.014;-0.680;2023-06-04T02:03:01;13.50;;;4.70;;
57249;SDS011;43102;52.014;-0.680;2023-06-04T02:04:00;13.50;;;4.70;;
57249;SDS011;43102;52.014;-0.680;2023-06-04T02:05:00;13.50;;;4.70;;
57249;SDS011;43102;52.014;-0.680;2023-06-04T02:06:00;13.50;;;4.70;;
57249;SDS011;43102;52.014;-0.680;2023-06-04T02:07:00;13.50;;;4.70;;
57249;SDS011;43102;52.014;-0.680;2023-06-04T02:08:02;13.50;;;4.70;;
57249;SDS011;43102;52.014;-0.680;2023-06-04T02:09:01;13.50;;;4.70;;
57249;SDS011;43102;52.014;-0.680;2023-06-04T02:10:00;13.50;;;4.70;;
57249;SDS011;43102;52.014;-0.680;2023-06-04T02:11:00;13.50;;;4.70;;
57249;SDS011;43102;52.014;-0.680;2023-06-04T02:12:01;13.50;;;4.70;;
57249;SDS011;43102;52.014;-0.680;2023-06-04T02:13:03;13.50;;;4.70;;
57249;SDS011;43102;52.014;-0.680;2023-06-04T02:14:00;15.10;;;5.10;;
57249;SDS011;43102;52.014;-0.680;2023-06-04T02:15:00;15.10;;;5.10;;
57249;SDS011;43102;52.014;-0.680;2023-06-04T02:16:00;15.10;;;5.10;;
57249;SDS011;43102;52.014;-0.680;2023-06-04T02:17:00;15.10;;;5.10;;
57249;SDS011;43102;52.014;-0.680;2023-06-04T02:18:17;15.10;;;5.10;;
57249;SDS011;43102;52.014;-0.680;2023-06-04T02:19:00;15.10;;;5.10;;
57249;SDS011;43102;52.014;-0.680;2023-06-04T02:20:01;15.10;;;5.10;;
57249;SDS011;43102;52.014;-0.680;2023-06-04T02:21:00;15.10;;;5.10;;
57249;SDS011;43102;52.014;-0.680;2023-06-04T02:22:00;15.10;;;5.10;;
57249;SDS011;43102;52.014;-0.680;2023-06-04T02:23:00;15.10;;;5.10;;
57249;SDS011;43102;52.014;-0.680;2023-06-04T02:24:01;15.10;;;5.10;;
57249;SDS011;43102;52.014;-0.680;2023-06-04T02:25:00;15.10;;;5.10;;
57249;SDS011;43102;52.014;-0.680;2023-06-04T02:26:00;15.10;;;5.10;;
57249;SDS011;43102;52.014;-0.680;2023-06-04T02:27:00;15.10;;;5.10;;
57249;SDS011;43102;52.014;-0.680;2023-06-04T02:28:00;15.10;;;5.10;;
57249;SDS011;43102;52.014;-0.680;2023-06-04T02:29:01;15.10;;;5.10;;
57249;SDS011;43102;52.014;-0.680;2023-06-04T02:30:00;15.10;;;5.10;;
57249;SDS011;43102;52.014;-0.680;2023-06-04T02:31:00;15.10;;;5.10;;
57249;SDS011;43102;52.014;-0.680;2023-06-04T02:32:00;15.10;;;5.10;;
57249;SDS011;43102;52.014;-0.680;2023-06-04T02:33:00;15.10;;;5.10;;
57249;SDS011;43102;52.014;-0.680;2023-06-04T02:34:01;15.10;;;5.10;;
57249;SDS011;43102;52.014;-0.680;2023-06-04T02:35:01;15.10;;;5.10;;
57249;SDS011;43102;52.014;-0.680;2023-06-04T02:36:01;15.10;;;5.10;;
57249;SDS011;43102;52.014;-0.680;2023-06-04T02:37:01;15.10;;;5.10;;
57249;SDS011;43102;52.014;-0.680;2023-06-04T02:38:00;15.10;;;5.10;;
57249;SDS011;43102;52.014;-0.680;2023-06-04T02:39:01;15.10;;;5.10;;
57249;SDS011;43102;52.014;-0.680;2023-06-04T02:40:00;15.10;;;5.10;;
57249;SDS011;43102;52.014;-0.680;2023-06-04T02:41:00;15.10;;;5.10;;
57249;SDS011;43102;52.014;-0.680;2023-06-04T02:42:00;15.10;;;5.10;;
57249;SDS011;43102;52.014;-0.680;2023-06-04T02:43:00;15.10;;;5.10;;
57249;SDS011;43102;52.014;-0.680;2023-06-04T02:44:00;13.90;;;4.70;;
57249;SDS011;43102;52.014;-0.680;2023-06-04T02:45:00;13.90;;;4.70;;
57249;SDS011;43102;52.014;-0.680;2023-06-04T02:46:00;13.90;;;4.70;;
57249;SDS011;43102;52.014;-0.680;2023-06-04T02:47:00;13.90;;;4.70;;
57249;SDS011;43102;52.014;-0.680;2023-06-04T02:48:00;13.90;;;4.70;;
57249;SDS011;43102;52.014;-0.680;2023-06-04T02:49:00;13.90;;;4.70;;
57249;SDS011;43102;52.014;-0.680;2023-06-04T02:50:00;13.90;;;4.70;;
57249;SDS011;43102;52.014;-0.680;2023-06-04T02:51:00;13.90;;;4.70;;
57249;SDS011;43102;52.014;-0.680;2023-06-04T02:52:00;13.90;;;4.70;;
57249;SDS011;43102;52.014;-0.680;2023-06-04T02:53:00;13.90;;;4.70;;
57249;SDS011;43102;52.014;-0.680;2023-06-04T02:54:00;13.90;;;4.70;;
57249;SDS011;43102;52.014;-0.680;2023-06-04T02:55:02;13.90;;;4.70;;
57249;SDS011;43102;52.014;-0.680;2023-06-04T02:56:00;13.90;;;4.70;;
57249;SDS011;43102;52.014;-0.680;2023-06-04T02:57:00;13.90;;;4.70;;
57249;SDS011;43102;52.014;-0.680;2023-06-04T02:58:00;13.90;;;4.70;;
57249;SDS011;43102;52.014;-0.680;2023-06-04T02:59:00;13.90;;;4.70;;
57249;SDS011;43102;52.014;-0.680;2023-06-04T03:00:01;13.90;;;4.70;;
57249;SDS011;43102;52.014;-0.680;2023-06-04T03:01:01;13.90;;;4.70;;
57249;SDS011;43102;52.014;-0.680;2023-06-04T03:02:00;13.90;;;4.70;;
57249;SDS011;43102;52.014;-0.680;2023-06-04T03:03:01;13.90;;;4.70;;
57249;SDS011;43102;52.014;-0.680;2023-06-04T03:04:03;13.90;;;4.70;;
57249;SDS011;43102;52.014;-0.680;2023-06-04T03:05:02;13.90;;;4.70;;
57249;SDS011;43102;52.014;-0.680;2023-06-04T03:06:02;13.90;;;4.70;;
57249;SDS011;43102;52.014;-0.680;2023-06-04T03:07:02;13.90;;;4.70;;
57249;SDS011;43102;52.014;-0.680;2023-06-04T03:08:02;13.90;;;4.70;;
57249;SDS011;43102;52.014;-0.680;2023-06-04T03:09:00;13.90;;;4.70;;
57249;SDS011;43102;52.014;-0.680;2023-06-04T03:10:00;13.90;;;4.70;;
57249;SDS011;43102;52.014;-0.680;2023-06-04T03:11:00;13.90;;;4.70;;
57249;SDS011;43102;52.014;-0.680;2023-06-04T03:12:02;13.90;;;4.70;;
57249;SDS011;43102;52.014;-0.680;2023-06-04T03:13:01;13.90;;;4.70;;
57249;SDS011;43102;52.014;-0.680;2023-06-04T03:14:00;9.10;;;6.20;;
57249;SDS011;43102;52.014;-0.680;2023-06-04T03:15:01;9.10;;;6.20;;
57249;SDS011;43102;52.014;-0.680;2023-06-04T03:16:01;9.10;;;6.20;;
57249;SDS011;43102;52.014;-0.680;2023-06-04T03:17:07;9.10;;;6.20;;
57249;SDS011;43102;52.014;-0.680;2023-06-04T03:18:01;9.10;;;6.20;;
57249;SDS011;43102;52.014;-0.680;2023-06-04T03:19:01;9.10;;;6.20;;
57249;SDS011;43102;52.014;-0.680;2023-06-04T03:20:00;9.10;;;6.20;;
57249;SDS011;43102;52.014;-0.680;2023-06-04T03:21:00;9.10;;;6.20;;
57249;SDS011;43102;52.014;-0.680;2023-06-04T03:22:00;9.10;;;6.20;;
57249;SDS011;43102;52.014;-0.680;2023-06-04T03:23:00;9.10;;;6.20;;
57249;SDS011;43102;52.014;-0.680;2023-06-04T03:24:01;9.10;;;6.20;;
57249;SDS011;43102;52.014;-0.680;2023-06-04T03:25:00;9.10;;;6.20;;
57249;SDS011;43102;52.014;-0.680;2023-06-04T03:26:02;9.10;;;6.20;;
57249;SDS011;43102;52.014;-0.680;2023-06-04T03:27:01;9.10;;;6.20;;
57249;SDS011;43102;52.014;-0.680;2023-06-04T03:28:00;9.10;;;6.20;;
57249;SDS011;43102;52.014;-0.680;2023-06-04T03:29:00;9.10;;;6.20;;
57249;SDS011;43102;52.014;-0.680;2023-06-04T03:30:00;9.10;;;6.20;;
57249;SDS011;43102;52.014;-0.680;2023-06-04T03:31:01;9.10;;;6.20;;
57249;SDS011;43102;52.014;-0.680;2023-06-04T03:32:01;9.10;;;6.20;;
57249;SDS011;43102;52.014;-0.680;2023-06-04T03:33:00;9.10;;;6.20;;
57249;SDS011;43102;52.014;-0.680;2023-06-04T03:34:00;9.10;;;6.20;;
57249;SDS011;43102;52.014;-0.680;2023-06-04T03:35:01;9.10;;;6.20;;
57249;SDS011;43102;52.014;-0.680;2023-06-04T03:36:00;9.10;;;6.20;;
57249;SDS011;43102;52.014;-0.680;2023-06-04T03:37:00;9.10;;;6.20;;
57249;SDS011;43102;52.014;-0.680;2023-06-04T03:38:00;9.10;;;6.20;;
57249;SDS011;43102;52.014;-0.680;2023-06-04T03:39:00;9.10;;;6.20;;
57249;SDS011;43102;52.014;-0.680;2023-06-04T03:40:02;9.10;;;6.20;;
57249;SDS011;43102;52.014;-0.680;2023-06-04T03:41:00;9.10;;;6.20;;
57249;SDS011;43102;52.014;-0.680;2023-06-04T03:42:00;9.10;;;6.20;;
57249;SDS011;43102;52.014;-0.680;2023-06-04T03:43:00;9.10;;;6.20;;
57249;SDS011;43102;52.014;-0.680;2023-06-04T03:44:00;10.30;;;5.60;;
57249;SDS011;43102;52.014;-0.680;2023-06-04T03:45:00;10.30;;;5.60;;
57249;SDS011;43102;52.014;-0.680;2023-06-04T03:46:00;10.30;;;5.60;;
57249;SDS011;43102;52.014;-0.680;2023-06-04T03:47:00;10.30;;;5.60;;
57249;SDS011;43102;52.014;-0.680;2023-06-04T03:48:00;10.30;;;5.60;;
57249;SDS011;43102;52.014;-0.680;2023-06-04T03:49:02;10.30;;;5.60;;
57249;SDS011;43102;52.014;-0.680;2023-06-04T03:50:00;10.30;;;5.60;;
57249;SDS011;43102;52.014;-0.680;2023-06-04T03:51:00;10.30;;;5.60;;
57249;SDS011;43102;52.014;-0.680;2023-06-04T03:52:00;10.30;;;5.60;;
57249;SDS011;43102;52.014;-0.680;2023-06-04T03:53:00;10.30;;;5.60;;
57249;SDS011;43102;52.014;-0.680;2023-06-04T03:54:02;10.30;;;5.60;;
57249;SDS011;43102;52.014;-0.680;2023-06-04T03:55:01;10.30;;;5.60;;
57249;SDS011;43102;52.014;-0.680;2023-06-04T03:56:00;10.30;;;5.60;;
57249;SDS011;43102;52.014;-0.680;2023-06-04T03:57:01;10.30;;;5.60;;
57249;SDS011;43102;52.014;-0.680;2023-06-04T03:58:00;10.30;;;5.60;;
57249;SDS011;43102;52.014;-0.680;2023-06-04T03:59:00;10.30;;;5.60;;
57249;SDS011;43102;52.014;-0.680;2023-06-04T04:00:01;10.30;;;5.60;;
57249;SDS011;43102;52.014;-0.680;2023-06-04T04:01:01;10.30;;;5.60;;
57249;SDS011;43102;52.014;-0.680;2023-06-04T04:02:00;10.30;;;5.60;;
57249;SDS011;43102;52.014;-0.680;2023-06-04T04:03:01;10.30;;;5.60;;
57249;SDS011;43102;52.014;-0.680;2023-06-04T04:04:00;10.30;;;5.60;;
57249;SDS011;43102;52.014;-0.680;2023-06-04T04:05:01;10.30;;;5.60;;
57249;SDS011;43102;52.014;-0.680;2023-06-04T04:06:00;10.30;;;5.60;;
57249;SDS011;43102;52.014;-0.680;2023-06-04T04:07:00;10.30;;;5.60;;
57249;SDS011;43102;52.014;-0.680;2023-06-04T04:08:00;10.30;;;5.60;;
57249;SDS011;43102;52.014;-0.680;2023-06-04T04:09:01;10.30;;;5.60;;
57249;SDS011;43102;52.014;-0.680;2023-06-04T04:10:00;10.30;;;5.60;;
57249;SDS011;43102;52.014;-0.680;2023-06-04T04:11:01;10.30;;;5.60;;
57249;SDS011;43102;52.014;-0.680;2023-06-04T04:12:00;10.30;;;5.60;;
57249;SDS011;43102;52.014;-0.680;2023-06-04T04:13:00;10.30;;;5.60;;
57249;SDS011;43102;52.014;-0.680;2023-06-04T04:14:01;13.50;;;5.70;;
57249;SDS011;43102;52.014;-0.680;2023-06-04T04:15:00;13.50;;;5.70;;
57249;SDS011;43102;52.014;-0.680;2023-06-04T04:16:01;13.50;;;5.70;;
57249;SDS011;43102;52.014;-0.680;2023-06-04T04:17:01;13.50;;;5.70;;
57249;SDS011;43102;52.014;-0.680;2023-06-04T04:18:01;13.50;;;5.70;;
57249;SDS011;43102;52.014;-0.680;2023-06-04T04:19:00;13.50;;;5.70;;
57249;SDS011;43102;52.014;-0.680;2023-06-04T04:20:03;13.50;;;5.70;;
57249;SDS011;43102;52.014;-0.680;2023-06-04T04:21:00;13.50;;;5.70;;
57249;SDS011;43102;52.014;-0.680;2023-06-04T04:22:00;13.50;;;5.70;;
57249;SDS011;43102;52.014;-0.680;2023-06-04T04:23:00;13.50;;;5.70;;
57249;SDS011;43102;52.014;-0.680;2023-06-04T04:24:01;13.50;;;5.70;;
57249;SDS011;43102;52.014;-0.680;2023-06-04T04:25:01;13.50;;;5.70;;
57249;SDS011;43102;52.014;-0.680;2023-06-04T04:26:02;13.50;;;5.70;;
57249;SDS011;43102;52.014;-0.680;2023-06-04T04:27:03;13.50;;;5.70;;
57249;SDS011;43102;52.014;-0.680;2023-06-04T04:28:02;13.50;;;5.70;;
57249;SDS011;43102;52.014;-0.680;2023-06-04T04:29:00;13.50;;;5.70;;
57249;SDS011;43102;52.014;-0.680;2023-06-04T04:30:00;13.50;;;5.70;;
57249;SDS011;43102;52.014;-0.680;2023-06-04T04:31:02;13.50;;;5.70;;
57249;SDS011;43102;52.014;-0.680;2023-06-04T04:32:02;13.50;;;5.70;;
57249;SDS011;43102;52.014;-0.680;2023-06-04T04:33:02;13.50;;;5.70;;
57249;SDS011;43102;52.014;-0.680;2023-06-04T04:34:01;13.50;;;5.70;;
57249;SDS011;43102;52.014;-0.680;2023-06-04T04:35:00;13.50;;;5.70;;
57249;SDS011;43102;52.014;-0.680;2023-06-04T04:36:01;13.50;;;5.70;;
57249;SDS011;43102;52.014;-0.680;2023-06-04T04:37:02;13.50;;;5.70;;
57249;SDS011;43102;52.014;-0.680;2023-06-04T04:38:03;13.50;;;5.70;;
57249;SDS011;43102;52.014;-0.680;2023-06-04T04:39:00;13.50;;;5.70;;
57249;SDS011;43102;52.014;-0.680;2023-06-04T04:40:00;13.50;;;5.70;;
57249;SDS011;43102;52.014;-0.680;2023-06-04T04:41:00;13.50;;;5.70;;
57249;SDS011;43102;52.014;-0.680;2023-06-04T04:42:00;13.50;;;5.70;;
57249;SDS011;43102;52.014;-0.680;2023-06-04T04:43:00;13.50;;;5.70;;
57249;SDS011;43102;52.014;-0.680;2023-06-04T04:44:05;12.20;;;5.80;;
57249;SDS011;43102;52.014;-0.680;2023-06-04T04:45:00;12.20;;;5.80;;
57249;SDS011;43102;52.014;-0.680;2023-06-04T04:46:00;12.20;;;5.80;;
57249;SDS011;43102;52.014;-0.680;2023-06-04T04:47:00;12.20;;;5.80;;
57249;SDS011;43102;52.014;-0.680;2023-06-04T04:48:00;12.20;;;5.80;;
57249;SDS011;43102;52.014;-0.680;2023-06-04T04:49:00;12.20;;;5.80;;
57249;SDS011;43102;52.014;-0.680;2023-06-04T04:50:00;12.20;;;5.80;;
57249;SDS011;43102;52.014;-0.680;2023-06-04T04:51:00;12.20;;;5.80;;
57249;SDS011;43102;52.014;-0.680;2023-06-04T04:52:00;12.20;;;5.80;;
57249;SDS011;43102;52.014;-0.680;2023-06-04T04:53:01;12.20;;;5.80;;
57249;SDS011;43102;52.014;-0.680;2023-06-04T04:54:00;12.20;;;5.80;;
57249;SDS011;43102;52.014;-0.680;2023-06-04T04:55:00;12.20;;;5.80;;
57249;SDS011;43102;52.014;-0.680;2023-06-04T04:56:00;12.20;;;5.80;;
57249;SDS011;43102;52.014;-0.680;2023-06-04T04:57:10;12.20;;;5.80;;
57249;SDS011;43102;52.014;-0.680;2023-06-04T04:58:00;12.20;;;5.80;;
57249;SDS011;43102;52.014;-0.680;2023-06-04T04:59:01;12.20;;;5.80;;
57249;SDS011;43102;52.014;-0.680;2023-06-04T05:00:00;12.20;;;5.80;;
57249;SDS011;43102;52.014;-0.680;2023-06-04T05:01:00;12.20;;;5.80;;
57249;SDS011;43102;52.014;-0.680;2023-06-04T05:02:01;12.20;;;5.80;;
57249;SDS011;43102;52.014;-0.680;2023-06-04T05:03:00;12.20;;;5.80;;
57249;SDS011;43102;52.014;-0.680;2023-06-04T05:04:03;12.20;;;5.80;;
57249;SDS011;43102;52.014;-0.680;2023-06-04T05:05:00;12.20;;;5.80;;
57249;SDS011;43102;52.014;-0.680;2023-06-04T05:06:00;12.20;;;5.80;;
57249;SDS011;43102;52.014;-0.680;2023-06-04T05:07:00;12.20;;;5.80;;
57249;SDS011;43102;52.014;-0.680;2023-06-04T05:08:00;12.20;;;5.80;;
57249;SDS011;43102;52.014;-0.680;2023-06-04T05:09:00;12.20;;;5.80;;
57249;SDS011;43102;52.014;-0.680;2023-06-04T05:10:00;12.20;;;5.80;;
57249;SDS011;43102;52.014;-0.680;2023-06-04T05:11:00;12.20;;;5.80;;
57249;SDS011;43102;52.014;-0.680;2023-06-04T05:12:01;12.20;;;5.80;;
57249;SDS011;43102;52.014;-0.680;2023-06-04T05:13:01;12.20;;;5.80;;
57249;SDS011;43102;52.014;-0.680;2023-06-04T05:14:00;11.60;;;5.10;;
57249;SDS011;43102;52.014;-0.680;2023-06-04T05:15:00;11.60;;;5.10;;
57249;SDS011;43102;52.014;-0.680;2023-06-04T05:16:06;11.60;;;5.10;;
57249;SDS011;43102;52.014;-0.680;2023-06-04T05:17:00;11.60;;;5.10;;
57249;SDS011;43102;52.014;-0.680;2023-06-04T05:18:02;11.60;;;5.10;;
57249;SDS011;43102;52.014;-0.680;2023-06-04T05:19:01;11.60;;;5.10;;
57249;SDS011;43102;52.014;-0.680;2023-06-04T05:20:04;11.60;;;5.10;;
57249;SDS011;43102;52.014;-0.680;2023-06-04T05:21:02;11.60;;;5.10;;
57249;SDS011;43102;52.014;-0.680;2023-06-04T05:22:00;11.60;;;5.10;;
57249;SDS011;43102;52.014;-0.680;2023-06-04T05:23:02;11.60;;;5.10;;
57249;SDS011;43102;52.014;-0.680;2023-06-04T05:24:01;11.60;;;5.10;;
57249;SDS011;43102;52.014;-0.680;2023-06-04T05:25:00;11.60;;;5.10;;
57249;SDS011;43102;52.014;-0.680;2023-06-04T05:26:01;11.60;;;5.10;;
57249;SDS011;43102;52.014;-0.680;2023-06-04T05:27:02;11.60;;;5.10;;
57249;SDS011;43102;52.014;-0.680;2023-06-04T05:28:00;11.60;;;5.10;;
57249;SDS011;43102;52.014;-0.680;2023-06-04T05:29:01;11.60;;;5.10;;
57249;SDS011;43102;52.014;-0.680;2023-06-04T05:30:01;11.60;;;5.10;;
57249;SDS011;43102;52.014;-0.680;2023-06-04T05:31:00;11.60;;;5.10;;
57249;SDS011;43102;52.014;-0.680;2023-06-04T05:32:00;11.60;;;5.10;;
57249;SDS011;43102;52.014;-0.680;2023-06-04T05:33:00;11.60;;;5.10;;
57249;SDS011;43102;52.014;-0.680;2023-06-04T05:34:02;11.60;;;5.10;;
57249;SDS011;43102;52.014;-0.680;2023-06-04T05:35:03;11.60;;;5.10;;
57249;SDS011;43102;52.014;-0.680;2023-06-04T05:36:00;11.60;;;5.10;;
57249;SDS011;43102;52.014;-0.680;2023-06-04T05:37:01;11.60;;;5.10;;
57249;SDS011;43102;52.014;-0.680;2023-06-04T05:38:00;11.60;;;5.10;;
57249;SDS011;43102;52.014;-0.680;2023-06-04T05:39:00;11.60;;;5.10;;
57249;SDS011;43102;52.014;-0.680;2023-06-04T05:40:00;11.60;;;5.10;;
57249;SDS011;43102;52.014;-0.680;2023-06-04T05:41:00;11.60;;;5.10;;
57249;SDS011;43102;52.014;-0.680;2023-06-04T05:42:00;11.60;;;5.10;;
57249;SDS011;43102;52.014;-0.680;2023-06-04T05:43:00;11.60;;;5.10;;
57249;SDS011;43102;52.014;-0.680;2023-06-04T05:44:00;11.20;;;5.40;;
57249;SDS011;43102;52.014;-0.680;2023-06-04T05:45:00;11.20;;;5.40;;
57249;SDS011;43102;52.014;-0.680;2023-06-04T05:46:00;11.20;;;5.40;;
57249;SDS011;43102;52.014;-0.680;2023-06-04T05:47:01;11.20;;;5.40;;
57249;SDS011;43102;52.014;-0.680;2023-06-04T05:48:03;11.20;;;5.40;;
57249;SDS011;43102;52.014;-0.680;2023-06-04T05:49:00;11.20;;;5.40;;
57249;SDS011;43102;52.014;-0.680;2023-06-04T05:50:01;11.20;;;5.40;;
57249;SDS011;43102;52.014;-0.680;2023-06-04T05:51:00;11.20;;;5.40;;
57249;SDS011;43102;52.014;-0.680;2023-06-04T05:52:00;11.20;;;5.40;;
57249;SDS011;43102;52.014;-0.680;2023-06-04T05:53:00;11.20;;;5.40;;
57249;SDS011;43102;52.014;-0.680;2023-06-04T05:54:01;11.20;;;5.40;;